sensor_id;sensor_type;location;lat;lon;timestamp;P1;durP1;ratioP1;P2;durP2;ratioP2
58015;SDS011;43809;52.110;20.964;2023-07-16T00:00:18;7.20;;;5.90;;
58015;SDS011;43809;52.110;20.964;2023-07-16T00:02:20;8.50;;;6.28;;
58015;SDS011;43809;52.110;20.964;2023-07-16T00:04:20;7.80;;;7.00;;
58015;SDS011;43809;52.110;20.964;2023-07-16T00:06:20;8.43;;;7.13;;
58015;SDS011;43809;52.110;20.964;2023-07-16T00:08:21;7.85;;;7.05;;
58015;SDS011;43809;52.110;20.964;2023-07-16T00:10:22;7.93;;;7.13;;
58015;SDS011;43809;52.110;20.964;2023-07-16T00:12:22;7.77;;;6.80;;
58015;SDS011;43809;52.110;20.964;2023-07-16T00:14:22;7.27;;;6.57;;
58015;SDS011;43809;52.110;20.964;2023-07-16T00:16:22;6.80;;;6.20;;
58015;SDS011;43809;52.110;20.964;2023-07-16T00:20:54;7.32;;;6.20;;
58015;SDS011;43809;52.110;20.964;2023-07-16T00:22:54;8.23;;;6.80;;
58015;SDS011;43809;52.110;20.964;2023-07-16T00:24:54;7.13;;;6.43;;
58015;SDS011;43809;52.110;20.964;2023-07-16T00:26:55;7.93;;;7.07;;
58015;SDS011;43809;52.110;20.964;2023-07-16T00:28:55;7.70;;;6.90;;
58015;SDS011;43809;52.110;20.964;2023-07-16T00:30:55;8.73;;;7.22;;
58015;SDS011;43809;52.110;20.964;2023-07-16T00:32:55;7.15;;;6.35;;
58015;SDS011;43809;52.110;20.964;2023-07-16T00:34:55;8.53;;;7.33;;
58015;SDS011;43809;52.110;20.964;2023-07-16T00:36:56;8.00;;;6.75;;
58015;SDS011;43809;52.110;20.964;2023-07-16T00:39:01;8.90;;;6.78;;
58015;SDS011;43809;52.110;20.964;2023-07-16T00:41:01;9.07;;;7.32;;
58015;SDS011;43809;52.110;20.964;2023-07-16T00:43:01;8.17;;;7.00;;
58015;SDS011;43809;52.110;20.964;2023-07-16T00:45:02;7.32;;;6.63;;
58015;SDS011;43809;52.110;20.964;2023-07-16T00:47:03;9.93;;;7.35;;
58015;SDS011;43809;52.110;20.964;2023-07-16T00:49:03;7.45;;;6.75;;
58015;SDS011;43809;52.110;20.964;2023-07-16T00:56:10;7.30;;;6.60;;
58015;SDS011;43809;52.110;20.964;2023-07-16T00:58:10;8.13;;;7.30;;
58015;SDS011;43809;52.110;20.964;2023-07-16T01:02:52;8.43;;;7.60;;
58015;SDS011;43809;52.110;20.964;2023-07-16T01:04:52;7.63;;;6.85;;
58015;SDS011;43809;52.110;20.964;2023-07-16T01:06:53;8.68;;;7.80;;
58015;SDS011;43809;52.110;20.964;2023-07-16T01:09:02;8.45;;;7.65;;
58015;SDS011;43809;52.110;20.964;2023-07-16T01:11:02;8.57;;;7.68;;
58015;SDS011;43809;52.110;20.964;2023-07-16T01:13:03;7.97;;;7.18;;
58015;SDS011;43809;52.110;20.964;2023-07-16T01:20:19;8.77;;;7.20;;
58015;SDS011;43809;52.110;20.964;2023-07-16T01:22:27;8.50;;;7.60;;
58015;SDS011;43809;52.110;20.964;2023-07-16T01:26:44;8.38;;;7.57;;
58015;SDS011;43809;52.110;20.964;2023-07-16T01:29:06;7.80;;;7.00;;
58015;SDS011;43809;52.110;20.964;2023-07-16T01:31:07;8.38;;;7.57;;
58015;SDS011;43809;52.110;20.964;2023-07-16T01:33:08;9.32;;;7.75;;
58015;SDS011;43809;52.110;20.964;2023-07-16T01:35:11;7.97;;;7.28;;
58015;SDS011;43809;52.110;20.964;2023-07-16T01:37:12;11.38;;;7.88;;
58015;SDS011;43809;52.110;20.964;2023-07-16T01:39:12;11.73;;;7.53;;
58015;SDS011;43809;52.110;20.964;2023-07-16T01:41:12;8.38;;;7.28;;
58015;SDS011;43809;52.110;20.964;2023-07-16T01:43:13;10.45;;;8.43;;
58015;SDS011;43809;52.110;20.964;2023-07-16T01:45:18;8.53;;;7.70;;
58015;SDS011;43809;52.110;20.964;2023-07-16T01:49:51;9.25;;;8.35;;
58015;SDS011;43809;52.110;20.964;2023-07-16T01:51:51;8.23;;;7.43;;
58015;SDS011;43809;52.110;20.964;2023-07-16T01:53:51;8.63;;;7.77;;
58015;SDS011;43809;52.110;20.964;2023-07-16T01:55:51;9.47;;;8.47;;
58015;SDS011;43809;52.110;20.964;2023-07-16T02:03:14;8.35;;;7.55;;
58015;SDS011;43809;52.110;20.964;2023-07-16T02:05:14;10.20;;;8.23;;
58015;SDS011;43809;52.110;20.964;2023-07-16T02:07:15;8.95;;;7.75;;
58015;SDS011;43809;52.110;20.964;2023-07-16T02:09:15;8.97;;;8.07;;
58015;SDS011;43809;52.110;20.964;2023-07-16T02:11:15;8.43;;;7.53;;
58015;SDS011;43809;52.110;20.964;2023-07-16T02:13:15;8.57;;;7.78;;
58015;SDS011;43809;52.110;20.964;2023-07-16T02:17:39;10.13;;;8.43;;
58015;SDS011;43809;52.110;20.964;2023-07-16T02:19:39;8.63;;;7.77;;
58015;SDS011;43809;52.110;20.964;2023-07-16T02:21:39;9.17;;;8.13;;
58015;SDS011;43809;52.110;20.964;2023-07-16T02:23:46;9.60;;;8.60;;
58015;SDS011;43809;52.110;20.964;2023-07-16T02:25:47;8.60;;;7.80;;
58015;SDS011;43809;52.110;20.964;2023-07-16T02:27:47;9.57;;;8.10;;
58015;SDS011;43809;52.110;20.964;2023-07-16T02:29:47;9.05;;;8.15;;
58015;SDS011;43809;52.110;20.964;2023-07-16T02:31:48;8.90;;;8.00;;
58015;SDS011;43809;52.110;20.964;2023-07-16T02:33:48;8.60;;;7.80;;
58015;SDS011;43809;52.110;20.964;2023-07-16T02:35:49;8.93;;;8.10;;
58015;SDS011;43809;52.110;20.964;2023-07-16T02:37:49;8.32;;;7.50;;
58015;SDS011;43809;52.110;20.964;2023-07-16T02:39:49;9.77;;;7.80;;
58015;SDS011;43809;52.110;20.964;2023-07-16T02:41:49;8.63;;;7.77;;
58015;SDS011;43809;52.110;20.964;2023-07-16T02:43:58;9.73;;;8.20;;
58015;SDS011;43809;52.110;20.964;2023-07-16T02:45:58;9.75;;;8.38;;
58015;SDS011;43809;52.110;20.964;2023-07-16T02:50:31;10.23;;;8.00;;
58015;SDS011;43809;52.110;20.964;2023-07-16T02:52:33;8.80;;;7.88;;
58015;SDS011;43809;52.110;20.964;2023-07-16T02:54:34;8.30;;;7.50;;
58015;SDS011;43809;52.110;20.964;2023-07-16T02:56:35;8.73;;;7.80;;
58015;SDS011;43809;52.110;20.964;2023-07-16T02:58:35;9.65;;;8.13;;
58015;SDS011;43809;52.110;20.964;2023-07-16T03:00:35;8.67;;;7.80;;
58015;SDS011;43809;52.110;20.964;2023-07-16T03:02:35;9.55;;;8.65;;
58015;SDS011;43809;52.110;20.964;2023-07-16T03:04:36;8.95;;;8.13;;
58015;SDS011;43809;52.110;20.964;2023-07-16T03:06:36;11.65;;;9.07;;
58015;SDS011;43809;52.110;20.964;2023-07-16T03:08:36;9.60;;;8.63;;
58015;SDS011;43809;52.110;20.964;2023-07-16T03:10:36;9.25;;;8.35;;
58015;SDS011;43809;52.110;20.964;2023-07-16T03:15:06;10.27;;;8.73;;
58015;SDS011;43809;52.110;20.964;2023-07-16T03:17:06;10.23;;;8.73;;
58015;SDS011;43809;52.110;20.964;2023-07-16T03:19:06;9.75;;;8.68;;
58015;SDS011;43809;52.110;20.964;2023-07-16T03:21:06;10.37;;;9.37;;
58015;SDS011;43809;52.110;20.964;2023-07-16T03:23:07;9.43;;;8.43;;
58015;SDS011;43809;52.110;20.964;2023-07-16T03:25:09;10.02;;;9.02;;
58015;SDS011;43809;52.110;20.964;2023-07-16T03:27:09;10.45;;;9.35;;
58015;SDS011;43809;52.110;20.964;2023-07-16T03:29:10;9.37;;;8.43;;
58015;SDS011;43809;52.110;20.964;2023-07-16T03:31:10;9.90;;;8.90;;
58015;SDS011;43809;52.110;20.964;2023-07-16T03:33:10;9.48;;;8.57;;
58015;SDS011;43809;52.110;20.964;2023-07-16T03:35:10;9.80;;;8.63;;
58015;SDS011;43809;52.110;20.964;2023-07-16T03:37:10;9.30;;;8.40;;
58015;SDS011;43809;52.110;20.964;2023-07-16T03:39:11;9.57;;;8.60;;
58015;SDS011;43809;52.110;20.964;2023-07-16T03:41:11;9.95;;;8.93;;
58015;SDS011;43809;52.110;20.964;2023-07-16T03:43:11;9.82;;;8.75;;
58015;SDS011;43809;52.110;20.964;2023-07-16T03:45:11;9.52;;;8.63;;
58015;SDS011;43809;52.110;20.964;2023-07-16T03:47:12;9.32;;;8.43;;
58015;SDS011;43809;52.110;20.964;2023-07-16T03:49:12;9.80;;;8.90;;
58015;SDS011;43809;52.110;20.964;2023-07-16T03:51:12;9.90;;;8.90;;
58015;SDS011;43809;52.110;20.964;2023-07-16T03:53:12;10.60;;;9.50;;
58015;SDS011;43809;52.110;20.964;2023-07-16T03:57:40;12.23;;;9.90;;
58015;SDS011;43809;52.110;20.964;2023-07-16T03:59:40;9.85;;;8.85;;
58015;SDS011;43809;52.110;20.964;2023-07-16T04:01:40;11.23;;;10.13;;
58015;SDS011;43809;52.110;20.964;2023-07-16T04:03:40;8.70;;;7.90;;
58015;SDS011;43809;52.110;20.964;2023-07-16T04:05:41;9.20;;;8.27;;
58015;SDS011;43809;52.110;20.964;2023-07-16T04:10:08;9.93;;;8.95;;
58015;SDS011;43809;52.110;20.964;2023-07-16T04:12:08;10.52;;;9.43;;
58015;SDS011;43809;52.110;20.964;2023-07-16T04:14:09;10.83;;;9.73;;
58015;SDS011;43809;52.110;20.964;2023-07-16T04:16:09;11.30;;;10.10;;
58015;SDS011;43809;52.110;20.964;2023-07-16T04:18:09;10.70;;;9.50;;
58015;SDS011;43809;52.110;20.964;2023-07-16T04:20:09;10.40;;;9.30;;
58015;SDS011;43809;52.110;20.964;2023-07-16T04:22:09;10.80;;;9.77;;
58015;SDS011;43809;52.110;20.964;2023-07-16T04:24:10;11.40;;;10.20;;
58015;SDS011;43809;52.110;20.964;2023-07-16T04:26:10;10.75;;;9.75;;
58015;SDS011;43809;52.110;20.964;2023-07-16T04:28:11;10.90;;;9.80;;
58015;SDS011;43809;52.110;20.964;2023-07-16T04:30:26;10.70;;;9.45;;
58015;SDS011;43809;52.110;20.964;2023-07-16T04:32:26;10.82;;;9.73;;
58015;SDS011;43809;52.110;20.964;2023-07-16T04:34:27;10.63;;;9.48;;
58015;SDS011;43809;52.110;20.964;2023-07-16T04:36:27;10.75;;;9.18;;
58015;SDS011;43809;52.110;20.964;2023-07-16T04:38:27;10.33;;;9.00;;
58015;SDS011;43809;52.110;20.964;2023-07-16T04:40:29;12.10;;;9.85;;
58015;SDS011;43809;52.110;20.964;2023-07-16T04:42:29;12.45;;;9.70;;
58015;SDS011;43809;52.110;20.964;2023-07-16T04:44:29;10.52;;;9.40;;
58015;SDS011;43809;52.110;20.964;2023-07-16T04:46:30;10.52;;;9.43;;
58015;SDS011;43809;52.110;20.964;2023-07-16T04:48:30;10.48;;;9.48;;
58015;SDS011;43809;52.110;20.964;2023-07-16T04:50:30;13.82;;;9.88;;
58015;SDS011;43809;52.110;20.964;2023-07-16T04:52:31;11.20;;;9.67;;
58015;SDS011;43809;52.110;20.964;2023-07-16T04:54:35;10.57;;;9.48;;
58015;SDS011;43809;52.110;20.964;2023-07-16T04:56:36;12.48;;;10.10;;
58015;SDS011;43809;52.110;20.964;2023-07-16T04:58:36;11.33;;;10.23;;
58015;SDS011;43809;52.110;20.964;2023-07-16T05:00:36;10.50;;;9.50;;
58015;SDS011;43809;52.110;20.964;2023-07-16T05:02:36;11.23;;;10.03;;
58015;SDS011;43809;52.110;20.964;2023-07-16T05:04:37;11.17;;;10.00;;
58015;SDS011;43809;52.110;20.964;2023-07-16T05:06:37;11.13;;;9.38;;
58015;SDS011;43809;52.110;20.964;2023-07-16T05:08:37;10.37;;;9.47;;
58015;SDS011;43809;52.110;20.964;2023-07-16T05:10:37;10.32;;;9.32;;
58015;SDS011;43809;52.110;20.964;2023-07-16T05:15:27;9.65;;;8.13;;
58015;SDS011;43809;52.110;20.964;2023-07-16T05:19:28;8.33;;;7.37;;
58015;SDS011;43809;52.110;20.964;2023-07-16T05:21:28;8.23;;;7.43;;
58015;SDS011;43809;52.110;20.964;2023-07-16T05:23:28;7.87;;;7.17;;
58015;SDS011;43809;52.110;20.964;2023-07-16T05:30:26;7.70;;;7.00;;
58015;SDS011;43809;52.110;20.964;2023-07-16T05:32:26;7.40;;;6.80;;
58015;SDS011;43809;52.110;20.964;2023-07-16T05:34:26;8.07;;;7.10;;
58015;SDS011;43809;52.110;20.964;2023-07-16T05:36:26;7.27;;;6.57;;
58015;SDS011;43809;52.110;20.964;2023-07-16T05:38:27;6.33;;;5.83;;
58015;SDS011;43809;52.110;20.964;2023-07-16T05:40:33;6.97;;;6.27;;
58015;SDS011;43809;52.110;20.964;2023-07-16T05:42:33;14.55;;;7.05;;
58015;SDS011;43809;52.110;20.964;2023-07-16T05:44:33;7.20;;;6.50;;
58015;SDS011;43809;52.110;20.964;2023-07-16T05:46:34;7.50;;;6.80;;
58015;SDS011;43809;52.110;20.964;2023-07-16T05:48:38;7.10;;;6.40;;
58015;SDS011;43809;52.110;20.964;2023-07-16T05:50:38;7.78;;;6.97;;
58015;SDS011;43809;52.110;20.964;2023-07-16T05:52:38;7.13;;;6.37;;
58015;SDS011;43809;52.110;20.964;2023-07-16T05:54:39;6.77;;;6.20;;
58015;SDS011;43809;52.110;20.964;2023-07-16T05:56:39;7.77;;;7.07;;
58015;SDS011;43809;52.110;20.964;2023-07-16T05:58:40;7.10;;;6.50;;
58015;SDS011;43809;52.110;20.964;2023-07-16T06:00:40;6.57;;;5.87;;
58015;SDS011;43809;52.110;20.964;2023-07-16T06:05:33;5.65;;;5.15;;
58015;SDS011;43809;52.110;20.964;2023-07-16T06:07:34;6.13;;;5.63;;
58015;SDS011;43809;52.110;20.964;2023-07-16T06:09:34;5.77;;;5.27;;
58015;SDS011;43809;52.110;20.964;2023-07-16T06:11:35;6.13;;;5.33;;
58015;SDS011;43809;52.110;20.964;2023-07-16T06:15:39;5.47;;;4.97;;
58015;SDS011;43809;52.110;20.964;2023-07-16T06:19:50;6.55;;;5.72;;
58015;SDS011;43809;52.110;20.964;2023-07-16T06:21:51;5.97;;;4.90;;
58015;SDS011;43809;52.110;20.964;2023-07-16T06:23:51;6.07;;;5.40;;
58015;SDS011;43809;52.110;20.964;2023-07-16T06:25:55;5.03;;;4.53;;
58015;SDS011;43809;52.110;20.964;2023-07-16T06:27:55;5.95;;;5.35;;
58015;SDS011;43809;52.110;20.964;2023-07-16T06:29:56;5.63;;;5.13;;
58015;SDS011;43809;52.110;20.964;2023-07-16T06:31:56;5.50;;;5.00;;
58015;SDS011;43809;52.110;20.964;2023-07-16T06:33:57;4.70;;;4.30;;
58015;SDS011;43809;52.110;20.964;2023-07-16T06:35:57;5.67;;;5.03;;
58015;SDS011;43809;52.110;20.964;2023-07-16T06:37:57;5.77;;;5.27;;
58015;SDS011;43809;52.110;20.964;2023-07-16T06:40:00;5.30;;;4.80;;
58015;SDS011;43809;52.110;20.964;2023-07-16T06:42:00;8.77;;;5.60;;
58015;SDS011;43809;52.110;20.964;2023-07-16T06:44:01;14.32;;;5.10;;
58015;SDS011;43809;52.110;20.964;2023-07-16T06:46:01;5.97;;;5.13;;
58015;SDS011;43809;52.110;20.964;2023-07-16T06:50:43;5.15;;;4.75;;
58015;SDS011;43809;52.110;20.964;2023-07-16T06:52:43;5.45;;;4.97;;
58015;SDS011;43809;52.110;20.964;2023-07-16T06:54:43;10.80;;;5.53;;
58015;SDS011;43809;52.110;20.964;2023-07-16T06:56:44;6.13;;;5.53;;
58015;SDS011;43809;52.110;20.964;2023-07-16T06:58:44;6.17;;;5.53;;
58015;SDS011;43809;52.110;20.964;2023-07-16T07:00:44;5.50;;;5.00;;
58015;SDS011;43809;52.110;20.964;2023-07-16T07:03:00;8.37;;;5.70;;
58015;SDS011;43809;52.110;20.964;2023-07-16T07:05:01;6.20;;;5.05;;
58015;SDS011;43809;52.110;20.964;2023-07-16T07:07:01;5.80;;;5.20;;
58015;SDS011;43809;52.110;20.964;2023-07-16T07:09:01;5.87;;;5.37;;
58015;SDS011;43809;52.110;20.964;2023-07-16T07:13:41;5.30;;;4.82;;
58015;SDS011;43809;52.110;20.964;2023-07-16T07:15:42;6.05;;;5.45;;
58015;SDS011;43809;52.110;20.964;2023-07-16T07:20:20;5.90;;;5.30;;
58015;SDS011;43809;52.110;20.964;2023-07-16T07:22:20;6.90;;;6.10;;
58015;SDS011;43809;52.110;20.964;2023-07-16T07:24:20;5.00;;;4.50;;
58015;SDS011;43809;52.110;20.964;2023-07-16T07:26:21;6.13;;;5.57;;
58015;SDS011;43809;52.110;20.964;2023-07-16T07:28:21;41.97;;;10.23;;
58015;SDS011;43809;52.110;20.964;2023-07-16T07:30:36;7.07;;;6.33;;
58015;SDS011;43809;52.110;20.964;2023-07-16T07:32:37;5.40;;;4.90;;
58015;SDS011;43809;52.110;20.964;2023-07-16T07:34:40;10.48;;;5.97;;
58015;SDS011;43809;52.110;20.964;2023-07-16T07:36:40;6.25;;;5.65;;
58015;SDS011;43809;52.110;20.964;2023-07-16T07:38:41;7.63;;;5.93;;
58015;SDS011;43809;52.110;20.964;2023-07-16T07:40:42;6.33;;;5.73;;
58015;SDS011;43809;52.110;20.964;2023-07-16T07:45:03;5.07;;;4.68;;
58015;SDS011;43809;52.110;20.964;2023-07-16T07:47:03;6.03;;;4.83;;
58015;SDS011;43809;52.110;20.964;2023-07-16T07:49:04;7.63;;;5.97;;
58015;SDS011;43809;52.110;20.964;2023-07-16T07:51:05;6.37;;;5.20;;
58015;SDS011;43809;52.110;20.964;2023-07-16T07:53:05;5.90;;;5.40;;
58015;SDS011;43809;52.110;20.964;2023-07-16T07:55:21;5.38;;;4.88;;
58015;SDS011;43809;52.110;20.964;2023-07-16T07:57:21;6.50;;;5.40;;
58015;SDS011;43809;52.110;20.964;2023-07-16T07:59:22;5.77;;;5.10;;
58015;SDS011;43809;52.110;20.964;2023-07-16T08:01:22;5.30;;;4.73;;
58015;SDS011;43809;52.110;20.964;2023-07-16T08:03:22;16.37;;;6.70;;
58015;SDS011;43809;52.110;20.964;2023-07-16T08:05:25;5.03;;;4.50;;
58015;SDS011;43809;52.110;20.964;2023-07-16T08:07:28;6.63;;;5.28;;
58015;SDS011;43809;52.110;20.964;2023-07-16T08:09:28;6.20;;;5.20;;
58015;SDS011;43809;52.110;20.964;2023-07-16T08:11:29;5.77;;;4.90;;
58015;SDS011;43809;52.110;20.964;2023-07-16T08:13:29;5.80;;;5.30;;
58015;SDS011;43809;52.110;20.964;2023-07-16T08:15:29;5.53;;;5.03;;
58015;SDS011;43809;52.110;20.964;2023-07-16T08:17:29;5.93;;;4.90;;
58015;SDS011;43809;52.110;20.964;2023-07-16T08:19:30;6.60;;;4.93;;
58015;SDS011;43809;52.110;20.964;2023-07-16T08:21:30;5.17;;;4.77;;
58015;SDS011;43809;52.110;20.964;2023-07-16T08:23:31;5.40;;;4.68;;
58015;SDS011;43809;52.110;20.964;2023-07-16T08:25:32;5.20;;;4.70;;
58015;SDS011;43809;52.110;20.964;2023-07-16T08:27:32;8.57;;;5.20;;
58015;SDS011;43809;52.110;20.964;2023-07-16T08:29:34;6.87;;;4.97;;
58015;SDS011;43809;52.110;20.964;2023-07-16T08:31:35;4.80;;;4.38;;
58015;SDS011;43809;52.110;20.964;2023-07-16T08:33:35;5.07;;;4.57;;
58015;SDS011;43809;52.110;20.964;2023-07-16T08:35:35;6.17;;;5.00;;
58015;SDS011;43809;52.110;20.964;2023-07-16T08:37:35;5.07;;;4.67;;
58015;SDS011;43809;52.110;20.964;2023-07-16T08:39:35;6.73;;;4.70;;
58015;SDS011;43809;52.110;20.964;2023-07-16T08:41:36;4.53;;;4.13;;
58015;SDS011;43809;52.110;20.964;2023-07-16T08:43:36;9.03;;;5.00;;
58015;SDS011;43809;52.110;20.964;2023-07-16T08:45:39;4.83;;;4.37;;
58015;SDS011;43809;52.110;20.964;2023-07-16T08:50:23;5.13;;;4.65;;
58015;SDS011;43809;52.110;20.964;2023-07-16T08:52:24;5.07;;;4.68;;
58015;SDS011;43809;52.110;20.964;2023-07-16T08:54:26;8.02;;;4.50;;
58015;SDS011;43809;52.110;20.964;2023-07-16T08:56:26;5.20;;;4.80;;
58015;SDS011;43809;52.110;20.964;2023-07-16T08:58:26;5.37;;;4.57;;
58015;SDS011;43809;52.110;20.964;2023-07-16T09:00:27;5.07;;;4.67;;
58015;SDS011;43809;52.110;20.964;2023-07-16T09:02:28;4.60;;;4.20;;
58015;SDS011;43809;52.110;20.964;2023-07-16T09:04:28;15.07;;;5.60;;
58015;SDS011;43809;52.110;20.964;2023-07-16T09:06:29;5.78;;;5.28;;
58015;SDS011;43809;52.110;20.964;2023-07-16T09:08:30;4.70;;;4.30;;
58015;SDS011;43809;52.110;20.964;2023-07-16T09:10:30;5.37;;;4.80;;
58015;SDS011;43809;52.110;20.964;2023-07-16T09:12:32;4.93;;;4.53;;
58015;SDS011;43809;52.110;20.964;2023-07-16T09:14:32;5.28;;;4.78;;
58015;SDS011;43809;52.110;20.964;2023-07-16T09:16:33;5.43;;;4.97;;
58015;SDS011;43809;52.110;20.964;2023-07-16T09:18:33;5.03;;;4.63;;
58015;SDS011;43809;52.110;20.964;2023-07-16T09:20:34;5.27;;;4.77;;
58015;SDS011;43809;52.110;20.964;2023-07-16T09:22:34;4.93;;;4.53;;
58015;SDS011;43809;52.110;20.964;2023-07-16T09:24:35;4.73;;;4.33;;
58015;SDS011;43809;52.110;20.964;2023-07-16T09:26:38;5.10;;;4.60;;
58015;SDS011;43809;52.110;20.964;2023-07-16T09:28:39;5.65;;;4.95;;
58015;SDS011;43809;52.110;20.964;2023-07-16T09:30:39;5.27;;;4.87;;
58015;SDS011;43809;52.110;20.964;2023-07-16T09:32:45;5.27;;;4.80;;
58015;SDS011;43809;52.110;20.964;2023-07-16T09:34:49;5.70;;;5.10;;
58015;SDS011;43809;52.110;20.964;2023-07-16T09:36:49;5.40;;;4.97;;
58015;SDS011;43809;52.110;20.964;2023-07-16T09:38:50;6.50;;;5.00;;
58015;SDS011;43809;52.110;20.964;2023-07-16T09:41:07;7.53;;;5.30;;
58015;SDS011;43809;52.110;20.964;2023-07-16T09:43:07;5.22;;;4.82;;
58015;SDS011;43809;52.110;20.964;2023-07-16T09:45:08;16.70;;;6.00;;
58015;SDS011;43809;52.110;20.964;2023-07-16T09:47:09;5.45;;;4.95;;
58015;SDS011;43809;52.110;20.964;2023-07-16T09:49:14;5.70;;;5.10;;
58015;SDS011;43809;52.110;20.964;2023-07-16T09:51:15;5.35;;;4.85;;
58015;SDS011;43809;52.110;20.964;2023-07-16T09:53:23;4.90;;;4.50;;
58015;SDS011;43809;52.110;20.964;2023-07-16T09:55:24;4.97;;;4.47;;
58015;SDS011;43809;52.110;20.964;2023-07-16T10:00:17;6.15;;;4.32;;
58015;SDS011;43809;52.110;20.964;2023-07-16T10:02:18;5.22;;;4.80;;
58015;SDS011;43809;52.110;20.964;2023-07-16T10:04:20;5.45;;;4.95;;
58015;SDS011;43809;52.110;20.964;2023-07-16T10:06:20;5.30;;;4.87;;
58015;SDS011;43809;52.110;20.964;2023-07-16T10:08:21;6.97;;;5.57;;
58015;SDS011;43809;52.110;20.964;2023-07-16T10:10:22;11.77;;;5.80;;
58015;SDS011;43809;52.110;20.964;2023-07-16T10:12:26;5.72;;;4.95;;
58015;SDS011;43809;52.110;20.964;2023-07-16T10:14:28;5.47;;;5.07;;
58015;SDS011;43809;52.110;20.964;2023-07-16T10:16:28;5.63;;;5.13;;
58015;SDS011;43809;52.110;20.964;2023-07-16T10:18:35;5.20;;;4.70;;
58015;SDS011;43809;52.110;20.964;2023-07-16T10:20:37;5.80;;;5.30;;
58015;SDS011;43809;52.110;20.964;2023-07-16T10:25:08;21.98;;;7.00;;
58015;SDS011;43809;52.110;20.964;2023-07-16T10:27:09;5.38;;;4.88;;
58015;SDS011;43809;52.110;20.964;2023-07-16T10:29:09;5.90;;;5.30;;
58015;SDS011;43809;52.110;20.964;2023-07-16T10:31:20;5.70;;;5.23;;
58015;SDS011;43809;52.110;20.964;2023-07-16T10:33:21;7.78;;;5.72;;
58015;SDS011;43809;52.110;20.964;2023-07-16T10:35:22;6.23;;;5.73;;
58015;SDS011;43809;52.110;20.964;2023-07-16T10:37:22;6.45;;;5.80;;
58015;SDS011;43809;52.110;20.964;2023-07-16T10:39:23;6.30;;;5.80;;
58015;SDS011;43809;52.110;20.964;2023-07-16T10:41:23;6.17;;;5.57;;
58015;SDS011;43809;52.110;20.964;2023-07-16T10:43:23;5.80;;;5.30;;
58015;SDS011;43809;52.110;20.964;2023-07-16T10:45:24;6.47;;;5.87;;
58015;SDS011;43809;52.110;20.964;2023-07-16T10:50:18;9.15;;;5.75;;
58015;SDS011;43809;52.110;20.964;2023-07-16T10:52:19;6.63;;;6.03;;
58015;SDS011;43809;52.110;20.964;2023-07-16T10:54:20;6.67;;;6.00;;
58015;SDS011;43809;52.110;20.964;2023-07-16T11:01:32;6.22;;;5.65;;
58015;SDS011;43809;52.110;20.964;2023-07-16T11:03:34;6.03;;;5.53;;
58015;SDS011;43809;52.110;20.964;2023-07-16T11:05:34;6.75;;;6.15;;
58015;SDS011;43809;52.110;20.964;2023-07-16T11:07:35;6.87;;;5.57;;
58015;SDS011;43809;52.110;20.964;2023-07-16T11:09:40;6.27;;;5.67;;
58015;SDS011;43809;52.110;20.964;2023-07-16T11:11:41;7.20;;;5.70;;
58015;SDS011;43809;52.110;20.964;2023-07-16T11:13:41;5.57;;;5.07;;
58015;SDS011;43809;52.110;20.964;2023-07-16T11:17:48;6.18;;;5.25;;
58015;SDS011;43809;52.110;20.964;2023-07-16T11:19:48;6.68;;;5.85;;
58015;SDS011;43809;52.110;20.964;2023-07-16T11:21:49;5.97;;;5.47;;
58015;SDS011;43809;52.110;20.964;2023-07-16T11:23:49;5.97;;;5.10;;
58015;SDS011;43809;52.110;20.964;2023-07-16T11:28:12;5.85;;;5.35;;
58015;SDS011;43809;52.110;20.964;2023-07-16T11:30:12;6.13;;;5.60;;
58015;SDS011;43809;52.110;20.964;2023-07-16T11:32:14;6.63;;;6.03;;
58015;SDS011;43809;52.110;20.964;2023-07-16T11:34:14;10.73;;;5.57;;
58015;SDS011;43809;52.110;20.964;2023-07-16T11:36:16;10.33;;;5.60;;
58015;SDS011;43809;52.110;20.964;2023-07-16T11:40:17;7.40;;;5.70;;
58015;SDS011;43809;52.110;20.964;2023-07-16T11:44:19;29.08;;;7.97;;
58015;SDS011;43809;52.110;20.964;2023-07-16T11:46:19;5.80;;;5.20;;
58015;SDS011;43809;52.110;20.964;2023-07-16T11:48:19;8.07;;;5.80;;
58015;SDS011;43809;52.110;20.964;2023-07-16T11:50:19;5.87;;;5.30;;
58015;SDS011;43809;52.110;20.964;2023-07-16T11:54:30;5.70;;;5.20;;
58015;SDS011;43809;52.110;20.964;2023-07-16T11:56:31;5.97;;;5.37;;
58015;SDS011;43809;52.110;20.964;2023-07-16T11:58:31;6.30;;;5.70;;
58015;SDS011;43809;52.110;20.964;2023-07-16T12:00:31;6.00;;;5.50;;
58015;SDS011;43809;52.110;20.964;2023-07-16T12:02:34;6.60;;;6.07;;
58015;SDS011;43809;52.110;20.964;2023-07-16T12:04:35;6.07;;;5.57;;
58015;SDS011;43809;52.110;20.964;2023-07-16T12:06:35;7.70;;;6.33;;
58015;SDS011;43809;52.110;20.964;2023-07-16T12:08:35;6.00;;;5.50;;
58015;SDS011;43809;52.110;20.964;2023-07-16T12:10:52;6.93;;;5.97;;
58015;SDS011;43809;52.110;20.964;2023-07-16T12:12:52;5.80;;;5.20;;
58015;SDS011;43809;52.110;20.964;2023-07-16T12:14:53;5.57;;;4.77;;
58015;SDS011;43809;52.110;20.964;2023-07-16T12:16:53;7.03;;;5.63;;
58015;SDS011;43809;52.110;20.964;2023-07-16T12:21:04;5.88;;;5.32;;
58015;SDS011;43809;52.110;20.964;2023-07-16T12:23:06;5.75;;;5.25;;
58015;SDS011;43809;52.110;20.964;2023-07-16T12:25:09;7.63;;;5.80;;
58015;SDS011;43809;52.110;20.964;2023-07-16T12:27:09;5.70;;;5.20;;
58015;SDS011;43809;52.110;20.964;2023-07-16T12:29:09;5.50;;;5.00;;
58015;SDS011;43809;52.110;20.964;2023-07-16T12:31:09;6.30;;;4.67;;
58015;SDS011;43809;52.110;20.964;2023-07-16T12:33:10;6.30;;;5.03;;
58015;SDS011;43809;52.110;20.964;2023-07-16T12:53:33;24.65;;;6.68;;
58015;SDS011;43809;52.110;20.964;2023-07-16T12:55:41;5.17;;;4.00;;
58015;SDS011;43809;52.110;20.964;2023-07-16T12:57:41;4.70;;;4.30;;
58015;SDS011;43809;52.110;20.964;2023-07-16T12:59:41;4.00;;;3.67;;
58015;SDS011;43809;52.110;20.964;2023-07-16T13:01:41;4.30;;;3.90;;
58015;SDS011;43809;52.110;20.964;2023-07-16T13:03:41;4.77;;;4.37;;
58015;SDS011;43809;52.110;20.964;2023-07-16T13:05:44;5.10;;;4.03;;
58015;SDS011;43809;52.110;20.964;2023-07-16T13:07:54;4.20;;;3.58;;
58015;SDS011;43809;52.110;20.964;2023-07-16T13:09:54;4.45;;;3.70;;
58015;SDS011;43809;52.110;20.964;2023-07-16T13:11:54;5.17;;;3.87;;
58015;SDS011;43809;52.110;20.964;2023-07-16T13:13:55;3.93;;;3.63;;
58015;SDS011;43809;52.110;20.964;2023-07-16T13:16:14;8.33;;;4.30;;
58015;SDS011;43809;52.110;20.964;2023-07-16T13:18:14;4.93;;;3.88;;
58015;SDS011;43809;52.110;20.964;2023-07-16T13:20:14;4.20;;;3.80;;
58015;SDS011;43809;52.110;20.964;2023-07-16T13:22:14;5.83;;;3.50;;
58015;SDS011;43809;52.110;20.964;2023-07-16T13:24:15;3.80;;;3.50;;
58015;SDS011;43809;52.110;20.964;2023-07-16T13:26:15;3.50;;;3.20;;
58015;SDS011;43809;52.110;20.964;2023-07-16T13:28:15;3.60;;;3.30;;
58015;SDS011;43809;52.110;20.964;2023-07-16T13:30:16;4.27;;;3.87;;
58015;SDS011;43809;52.110;20.964;2023-07-16T13:32:17;3.55;;;3.25;;
58015;SDS011;43809;52.110;20.964;2023-07-16T13:34:17;3.40;;;3.10;;
58015;SDS011;43809;52.110;20.964;2023-07-16T13:36:17;5.00;;;3.53;;
58015;SDS011;43809;52.110;20.964;2023-07-16T13:38:17;3.53;;;3.23;;
58015;SDS011;43809;52.110;20.964;2023-07-16T13:40:18;3.47;;;3.17;;
58015;SDS011;43809;52.110;20.964;2023-07-16T13:42:20;3.78;;;3.00;;
58015;SDS011;43809;52.110;20.964;2023-07-16T13:44:21;3.97;;;3.17;;
58015;SDS011;43809;52.110;20.964;2023-07-16T13:46:21;3.50;;;3.10;;
58015;SDS011;43809;52.110;20.964;2023-07-16T13:48:21;3.07;;;2.67;;